sensor_id;sensor_type;location;lat;lon;timestamp;P1;durP1;ratioP1;P2;durP2;ratioP2
22687;SDS011;11511;51.514;7.080;2022-10-16T00:01:25;11.23;;;5.13;;
22687;SDS011;11511;51.514;7.080;2022-10-16T00:03:52;12.07;;;5.30;;
22687;SDS011;11511;51.514;7.080;2022-10-16T00:06:19;6.97;;;4.90;;
22687;SDS011;11511;51.514;7.080;2022-10-16T00:08:46;9.00;;;4.95;;
22687;SDS011;11511;51.514;7.080;2022-10-16T00:11:14;7.53;;;4.80;;
22687;SDS011;11511;51.514;7.080;2022-10-16T00:13:43;8.93;;;5.05;;
22687;SDS011;11511;51.514;7.080;2022-10-16T00:16:10;8.52;;;4.60;;
22687;SDS011;11511;51.514;7.080;2022-10-16T00:18:38;8.10;;;5.10;;
22687;SDS011;11511;51.514;7.080;2022-10-16T00:21:11;9.82;;;4.95;;
22687;SDS011;11511;51.514;7.080;2022-10-16T00:24:03;8.07;;;5.05;;
22687;SDS011;11511;51.514;7.080;2022-10-16T00:26:32;6.15;;;4.28;;
22687;SDS011;11511;51.514;7.080;2022-10-16T00:28:58;8.60;;;4.28;;
22687;SDS011;11511;51.514;7.080;2022-10-16T00:31:24;7.13;;;4.20;;
22687;SDS011;11511;51.514;7.080;2022-10-16T00:33:50;9.48;;;4.00;;
22687;SDS011;11511;51.514;7.080;2022-10-16T00:36:18;8.18;;;3.95;;
22687;SDS011;11511;51.514;7.080;2022-10-16T00:38:45;10.60;;;3.90;;
22687;SDS011;11511;51.514;7.080;2022-10-16T00:41:13;8.07;;;3.80;;
22687;SDS011;11511;51.514;7.080;2022-10-16T00:51:33;6.55;;;3.65;;
22687;SDS011;11511;51.514;7.080;2022-10-16T00:54:04;7.65;;;4.07;;
22687;SDS011;11511;51.514;7.080;2022-10-16T00:56:34;5.28;;;3.72;;
22687;SDS011;11511;51.514;7.080;2022-10-16T00:59:01;9.18;;;3.55;;
22687;SDS011;11511;51.514;7.080;2022-10-16T01:01:30;4.50;;;3.25;;
22687;SDS011;11511;51.514;7.080;2022-10-16T01:03:56;5.65;;;3.40;;
22687;SDS011;11511;51.514;7.080;2022-10-16T01:06:23;8.57;;;3.28;;
22687;SDS011;11511;51.514;7.080;2022-10-16T01:09:12;5.97;;;3.20;;
22687;SDS011;11511;51.514;7.080;2022-10-16T01:11:57;6.40;;;3.08;;
22687;SDS011;11511;51.514;7.080;2022-10-16T01:14:43;6.70;;;2.95;;
22687;SDS011;11511;51.514;7.080;2022-10-16T01:17:18;4.30;;;2.63;;
22687;SDS011;11511;51.514;7.080;2022-10-16T01:25:36;3.88;;;2.70;;
22687;SDS011;11511;51.514;7.080;2022-10-16T01:28:15;4.78;;;2.78;;
22687;SDS011;11511;51.514;7.080;2022-10-16T01:30:45;2.92;;;2.50;;
22687;SDS011;11511;51.514;7.080;2022-10-16T01:33:20;6.43;;;2.88;;
22687;SDS011;11511;51.514;7.080;2022-10-16T01:35:52;3.95;;;2.45;;
22687;SDS011;11511;51.514;7.080;2022-10-16T01:38:30;5.13;;;2.50;;
22687;SDS011;11511;51.514;7.080;2022-10-16T01:41:44;6.00;;;2.40;;
22687;SDS011;11511;51.514;7.080;2022-10-16T01:46:56;3.20;;;2.40;;
22687;SDS011;11511;51.514;7.080;2022-10-16T01:49:23;2.88;;;2.30;;
22687;SDS011;11511;51.514;7.080;2022-10-16T01:51:53;3.13;;;2.20;;
22687;SDS011;11511;51.514;7.080;2022-10-16T01:54:21;7.93;;;2.50;;
22687;SDS011;11511;51.514;7.080;2022-10-16T01:56:52;6.03;;;2.88;;
22687;SDS011;11511;51.514;7.080;2022-10-16T01:59:20;7.18;;;2.38;;
22687;SDS011;11511;51.514;7.080;2022-10-16T02:01:49;3.92;;;2.50;;
22687;SDS011;11511;51.514;7.080;2022-10-16T02:04:23;6.88;;;2.42;;
22687;SDS011;11511;51.514;7.080;2022-10-16T02:07:10;4.07;;;2.50;;
22687;SDS011;11511;51.514;7.080;2022-10-16T02:09:37;6.10;;;2.40;;
22687;SDS011;11511;51.514;7.080;2022-10-16T02:12:06;2.70;;;2.22;;
22687;SDS011;11511;51.514;7.080;2022-10-16T02:14:39;5.20;;;2.47;;
22687;SDS011;11511;51.514;7.080;2022-10-16T02:17:13;6.15;;;2.25;;
22687;SDS011;11511;51.514;7.080;2022-10-16T02:19:40;5.65;;;2.47;;
22687;SDS011;11511;51.514;7.080;2022-10-16T02:22:08;5.47;;;2.92;;
22687;SDS011;11511;51.514;7.080;2022-10-16T02:24:43;6.72;;;2.38;;
22687;SDS011;11511;51.514;7.080;2022-10-16T02:27:36;5.00;;;2.30;;
22687;SDS011;11511;51.514;7.080;2022-10-16T02:30:36;7.35;;;2.10;;
22687;SDS011;11511;51.514;7.080;2022-10-16T02:33:08;4.07;;;2.13;;
22687;SDS011;11511;51.514;7.080;2022-10-16T02:35:38;3.25;;;2.30;;
22687;SDS011;11511;51.514;7.080;2022-10-16T02:38:06;3.25;;;2.20;;
22687;SDS011;11511;51.514;7.080;2022-10-16T02:40:34;6.00;;;2.30;;
22687;SDS011;11511;51.514;7.080;2022-10-16T02:43:02;4.57;;;2.35;;
22687;SDS011;11511;51.514;7.080;2022-10-16T02:45:29;5.50;;;2.50;;
22687;SDS011;11511;51.514;7.080;2022-10-16T02:47:55;7.28;;;2.30;;
22687;SDS011;11511;51.514;7.080;2022-10-16T02:50:20;3.30;;;2.10;;
22687;SDS011;11511;51.514;7.080;2022-10-16T02:52:47;5.40;;;2.05;;
22687;SDS011;11511;51.514;7.080;2022-10-16T02:55:13;3.78;;;2.10;;
22687;SDS011;11511;51.514;7.080;2022-10-16T02:57:39;2.90;;;2.58;;
22687;SDS011;11511;51.514;7.080;2022-10-16T03:00:06;3.95;;;2.15;;
22687;SDS011;11511;51.514;7.080;2022-10-16T03:02:34;3.45;;;2.22;;
22687;SDS011;11511;51.514;7.080;2022-10-16T03:04:59;4.18;;;1.95;;
22687;SDS011;11511;51.514;7.080;2022-10-16T03:07:25;3.67;;;1.95;;
22687;SDS011;11511;51.514;7.080;2022-10-16T03:09:51;3.45;;;2.00;;
22687;SDS011;11511;51.514;7.080;2022-10-16T03:12:16;3.22;;;1.70;;
22687;SDS011;11511;51.514;7.080;2022-10-16T03:14:42;3.03;;;1.80;;
22687;SDS011;11511;51.514;7.080;2022-10-16T03:17:08;2.38;;;1.90;;
22687;SDS011;11511;51.514;7.080;2022-10-16T03:19:33;2.97;;;1.92;;
22687;SDS011;11511;51.514;7.080;2022-10-16T03:22:01;3.83;;;1.73;;
22687;SDS011;11511;51.514;7.080;2022-10-16T03:24:27;1.77;;;1.60;;
22687;SDS011;11511;51.514;7.080;2022-10-16T03:26:53;4.70;;;1.90;;
22687;SDS011;11511;51.514;7.080;2022-10-16T03:29:18;1.77;;;1.67;;
22687;SDS011;11511;51.514;7.080;2022-10-16T03:31:44;6.57;;;1.65;;
22687;SDS011;11511;51.514;7.080;2022-10-16T03:34:10;1.70;;;1.40;;
22687;SDS011;11511;51.514;7.080;2022-10-16T03:36:36;3.17;;;1.52;;
22687;SDS011;11511;51.514;7.080;2022-10-16T03:39:02;4.03;;;2.10;;
22687;SDS011;11511;51.514;7.080;2022-10-16T03:41:28;1.60;;;1.50;;
22687;SDS011;11511;51.514;7.080;2022-10-16T03:43:54;1.92;;;1.50;;
22687;SDS011;11511;51.514;7.080;2022-10-16T03:46:19;2.95;;;1.42;;
22687;SDS011;11511;51.514;7.080;2022-10-16T03:48:45;3.97;;;1.50;;
22687;SDS011;11511;51.514;7.080;2022-10-16T03:51:11;2.05;;;1.70;;
22687;SDS011;11511;51.514;7.080;2022-10-16T03:53:36;1.70;;;1.60;;
22687;SDS011;11511;51.514;7.080;2022-10-16T03:56:02;2.15;;;1.58;;
22687;SDS011;11511;51.514;7.080;2022-10-16T03:58:28;4.20;;;1.50;;
22687;SDS011;11511;51.514;7.080;2022-10-16T04:00:54;2.70;;;1.60;;
22687;SDS011;11511;51.514;7.080;2022-10-16T04:03:19;2.88;;;1.50;;
22687;SDS011;11511;51.514;7.080;2022-10-16T04:05:46;1.67;;;1.30;;
22687;SDS011;11511;51.514;7.080;2022-10-16T04:08:12;2.47;;;1.60;;
22687;SDS011;11511;51.514;7.080;2022-10-16T04:10:38;2.58;;;1.38;;
22687;SDS011;11511;51.514;7.080;2022-10-16T04:13:03;1.95;;;1.50;;
22687;SDS011;11511;51.514;7.080;2022-10-16T04:15:29;1.45;;;1.30;;
22687;SDS011;11511;51.514;7.080;2022-10-16T04:17:55;1.85;;;1.60;;
22687;SDS011;11511;51.514;7.080;2022-10-16T04:20:20;1.98;;;1.65;;
22687;SDS011;11511;51.514;7.080;2022-10-16T04:22:46;1.60;;;1.50;;
22687;SDS011;11511;51.514;7.080;2022-10-16T04:25:12;3.60;;;1.58;;
22687;SDS011;11511;51.514;7.080;2022-10-16T04:27:38;3.45;;;1.70;;
22687;SDS011;11511;51.514;7.080;2022-10-16T04:30:04;5.07;;;1.80;;
22687;SDS011;11511;51.514;7.080;2022-10-16T04:32:30;2.33;;;1.75;;
22687;SDS011;11511;51.514;7.080;2022-10-16T04:34:56;5.30;;;1.70;;
22687;SDS011;11511;51.514;7.080;2022-10-16T04:37:25;2.83;;;1.88;;
22687;SDS011;11511;51.514;7.080;2022-10-16T04:39:52;2.03;;;1.55;;
22687;SDS011;11511;51.514;7.080;2022-10-16T04:42:18;2.10;;;1.80;;
22687;SDS011;11511;51.514;7.080;2022-10-16T04:44:44;2.08;;;1.70;;
22687;SDS011;11511;51.514;7.080;2022-10-16T04:47:10;4.90;;;1.70;;
22687;SDS011;11511;51.514;7.080;2022-10-16T04:49:36;2.90;;;1.85;;
22687;SDS011;11511;51.514;7.080;2022-10-16T04:52:02;5.55;;;2.00;;
22687;SDS011;11511;51.514;7.080;2022-10-16T04:54:27;3.20;;;2.03;;
22687;SDS011;11511;51.514;7.080;2022-10-16T04:56:53;1.85;;;1.70;;
22687;SDS011;11511;51.514;7.080;2022-10-16T04:59:19;3.33;;;1.90;;
22687;SDS011;11511;51.514;7.080;2022-10-16T05:01:46;2.60;;;1.80;;
22687;SDS011;11511;51.514;7.080;2022-10-16T05:04:12;1.95;;;1.75;;
22687;SDS011;11511;51.514;7.080;2022-10-16T05:06:40;2.60;;;1.88;;
22687;SDS011;11511;51.514;7.080;2022-10-16T05:09:06;6.20;;;1.90;;
22687;SDS011;11511;51.514;7.080;2022-10-16T05:11:32;1.77;;;1.60;;
22687;SDS011;11511;51.514;7.080;2022-10-16T05:13:58;2.35;;;1.63;;
22687;SDS011;11511;51.514;7.080;2022-10-16T05:16:23;2.20;;;1.90;;
22687;SDS011;11511;51.514;7.080;2022-10-16T05:18:50;4.75;;;1.90;;
22687;SDS011;11511;51.514;7.080;2022-10-16T05:21:18;4.18;;;1.83;;
22687;SDS011;11511;51.514;7.080;2022-10-16T05:23:43;4.03;;;1.80;;
22687;SDS011;11511;51.514;7.080;2022-10-16T05:26:10;2.35;;;1.55;;
22687;SDS011;11511;51.514;7.080;2022-10-16T05:28:35;2.75;;;1.70;;
22687;SDS011;11511;51.514;7.080;2022-10-16T05:31:08;4.03;;;1.90;;
22687;SDS011;11511;51.514;7.080;2022-10-16T05:33:34;2.67;;;1.65;;
22687;SDS011;11511;51.514;7.080;2022-10-16T05:36:01;3.40;;;1.40;;
22687;SDS011;11511;51.514;7.080;2022-10-16T05:38:31;2.42;;;1.60;;
22687;SDS011;11511;51.514;7.080;2022-10-16T05:40:57;2.00;;;1.70;;
22687;SDS011;11511;51.514;7.080;2022-10-16T05:43:23;1.98;;;1.60;;
22687;SDS011;11511;51.514;7.080;2022-10-16T05:45:59;2.40;;;1.60;;
22687;SDS011;11511;51.514;7.080;2022-10-16T05:48:27;3.72;;;1.65;;
22687;SDS011;11511;51.514;7.080;2022-10-16T05:51:00;4.65;;;1.60;;
22687;SDS011;11511;51.514;7.080;2022-10-16T05:53:29;2.95;;;1.73;;
22687;SDS011;11511;51.514;7.080;2022-10-16T05:55:56;3.70;;;1.88;;
22687;SDS011;11511;51.514;7.080;2022-10-16T05:58:22;4.95;;;1.73;;
22687;SDS011;11511;51.514;7.080;2022-10-16T06:00:52;2.20;;;1.70;;
22687;SDS011;11511;51.514;7.080;2022-10-16T06:03:29;2.67;;;1.77;;
22687;SDS011;11511;51.514;7.080;2022-10-16T06:05:54;5.30;;;1.92;;
22687;SDS011;11511;51.514;7.080;2022-10-16T06:08:20;3.83;;;1.83;;
22687;SDS011;11511;51.514;7.080;2022-10-16T06:10:47;2.33;;;1.60;;
22687;SDS011;11511;51.514;7.080;2022-10-16T06:13:13;2.10;;;1.70;;
22687;SDS011;11511;51.514;7.080;2022-10-16T06:15:39;2.88;;;1.80;;
22687;SDS011;11511;51.514;7.080;2022-10-16T06:18:09;2.90;;;2.00;;
22687;SDS011;11511;51.514;7.080;2022-10-16T06:20:35;2.63;;;2.05;;
22687;SDS011;11511;51.514;7.080;2022-10-16T06:23:03;4.22;;;1.70;;
22687;SDS011;11511;51.514;7.080;2022-10-16T06:25:32;2.20;;;1.80;;
22687;SDS011;11511;51.514;7.080;2022-10-16T06:27:58;2.92;;;1.75;;
22687;SDS011;11511;51.514;7.080;2022-10-16T06:30:24;5.78;;;1.90;;
22687;SDS011;11511;51.514;7.080;2022-10-16T06:32:49;2.47;;;1.67;;
22687;SDS011;11511;51.514;7.080;2022-10-16T06:35:15;3.05;;;2.00;;
22687;SDS011;11511;51.514;7.080;2022-10-16T06:37:41;3.63;;;1.80;;
22687;SDS011;11511;51.514;7.080;2022-10-16T06:40:06;3.25;;;2.05;;
22687;SDS011;11511;51.514;7.080;2022-10-16T06:42:32;1.98;;;1.80;;
22687;SDS011;11511;51.514;7.080;2022-10-16T06:44:58;3.03;;;1.90;;
22687;SDS011;11511;51.514;7.080;2022-10-16T06:47:24;5.22;;;1.92;;
22687;SDS011;11511;51.514;7.080;2022-10-16T06:49:49;3.05;;;1.90;;
22687;SDS011;11511;51.514;7.080;2022-10-16T06:52:15;1.73;;;1.50;;
22687;SDS011;11511;51.514;7.080;2022-10-16T06:54:42;2.38;;;1.80;;
22687;SDS011;11511;51.514;7.080;2022-10-16T06:57:07;3.25;;;1.63;;
22687;SDS011;11511;51.514;7.080;2022-10-16T06:59:33;1.73;;;1.63;;
22687;SDS011;11511;51.514;7.080;2022-10-16T07:01:59;3.05;;;1.92;;
22687;SDS011;11511;51.514;7.080;2022-10-16T07:04:24;2.55;;;2.00;;
22687;SDS011;11511;51.514;7.080;2022-10-16T07:06:50;3.08;;;1.95;;
22687;SDS011;11511;51.514;7.080;2022-10-16T07:09:16;5.60;;;1.60;;
22687;SDS011;11511;51.514;7.080;2022-10-16T07:11:42;3.13;;;1.70;;
22687;SDS011;11511;51.514;7.080;2022-10-16T07:14:18;4.18;;;2.00;;
22687;SDS011;11511;51.514;7.080;2022-10-16T07:16:45;2.20;;;1.77;;
22687;SDS011;11511;51.514;7.080;2022-10-16T07:19:11;2.30;;;2.10;;
22687;SDS011;11511;51.514;7.080;2022-10-16T07:21:39;3.63;;;1.90;;
22687;SDS011;11511;51.514;7.080;2022-10-16T07:24:07;3.03;;;1.85;;
22687;SDS011;11511;51.514;7.080;2022-10-16T07:26:38;4.82;;;2.15;;
22687;SDS011;11511;51.514;7.080;2022-10-16T07:29:15;2.63;;;1.92;;
22687;SDS011;11511;51.514;7.080;2022-10-16T07:31:43;5.10;;;1.95;;
22687;SDS011;11511;51.514;7.080;2022-10-16T07:34:09;5.70;;;2.17;;
22687;SDS011;11511;51.514;7.080;2022-10-16T07:36:36;2.10;;;1.85;;
22687;SDS011;11511;51.514;7.080;2022-10-16T07:39:02;2.75;;;1.92;;
22687;SDS011;11511;51.514;7.080;2022-10-16T07:41:28;2.10;;;1.90;;
22687;SDS011;11511;51.514;7.080;2022-10-16T07:43:54;2.85;;;1.92;;
22687;SDS011;11511;51.514;7.080;2022-10-16T07:46:25;3.35;;;1.83;;
22687;SDS011;11511;51.514;7.080;2022-10-16T07:48:50;2.53;;;1.80;;
22687;SDS011;11511;51.514;7.080;2022-10-16T07:51:18;3.83;;;1.70;;
22687;SDS011;11511;51.514;7.080;2022-10-16T07:53:45;3.75;;;1.60;;
22687;SDS011;11511;51.514;7.080;2022-10-16T07:56:11;3.20;;;1.60;;
22687;SDS011;11511;51.514;7.080;2022-10-16T07:58:37;5.15;;;1.70;;
22687;SDS011;11511;51.514;7.080;2022-10-16T08:01:04;2.75;;;1.50;;
22687;SDS011;11511;51.514;7.080;2022-10-16T08:03:31;2.60;;;1.58;;
22687;SDS011;11511;51.514;7.080;2022-10-16T08:05:58;2.45;;;1.40;;
22687;SDS011;11511;51.514;7.080;2022-10-16T08:08:24;3.25;;;1.40;;
22687;SDS011;11511;51.514;7.080;2022-10-16T08:10:50;1.60;;;1.30;;
22687;SDS011;11511;51.514;7.080;2022-10-16T08:13:17;3.80;;;1.45;;
22687;SDS011;11511;51.514;7.080;2022-10-16T08:15:43;4.45;;;1.33;;
22687;SDS011;11511;51.514;7.080;2022-10-16T08:18:10;5.63;;;1.50;;
22687;SDS011;11511;51.514;7.080;2022-10-16T08:20:37;2.65;;;1.33;;
22687;SDS011;11511;51.514;7.080;2022-10-16T08:23:03;1.52;;;1.23;;
22687;SDS011;11511;51.514;7.080;2022-10-16T08:25:29;3.33;;;1.27;;
22687;SDS011;11511;51.514;7.080;2022-10-16T08:27:55;4.22;;;1.15;;
22687;SDS011;11511;51.514;7.080;2022-10-16T08:30:22;2.67;;;1.15;;
22687;SDS011;11511;51.514;7.080;2022-10-16T08:32:48;3.42;;;1.15;;
22687;SDS011;11511;51.514;7.080;2022-10-16T08:35:14;3.80;;;1.27;;
22687;SDS011;11511;51.514;7.080;2022-10-16T08:37:40;2.13;;;1.10;;
22687;SDS011;11511;51.514;7.080;2022-10-16T08:40:11;1.63;;;1.10;;
22687;SDS011;11511;51.514;7.080;2022-10-16T08:45:44;3.42;;;1.10;;
22687;SDS011;11511;51.514;7.080;2022-10-16T08:48:20;2.17;;;1.40;;
22687;SDS011;11511;51.514;7.080;2022-10-16T08:50:54;3.70;;;0.98;;
22687;SDS011;11511;51.514;7.080;2022-10-16T08:53:40;3.30;;;0.90;;
22687;SDS011;11511;51.514;7.080;2022-10-16T08:56:17;2.83;;;0.90;;
22687;SDS011;11511;51.514;7.080;2022-10-16T08:58:43;3.03;;;1.10;;
22687;SDS011;11511;51.514;7.080;2022-10-16T09:01:12;1.70;;;0.80;;
22687;SDS011;11511;51.514;7.080;2022-10-16T09:06:44;4.40;;;1.15;;
22687;SDS011;11511;51.514;7.080;2022-10-16T09:12:00;1.83;;;0.98;;
22687;SDS011;11511;51.514;7.080;2022-10-16T09:14:56;1.95;;;1.00;;
22687;SDS011;11511;51.514;7.080;2022-10-16T09:22:52;3.92;;;1.10;;
22687;SDS011;11511;51.514;7.080;2022-10-16T09:25:39;2.78;;;1.20;;
22687;SDS011;11511;51.514;7.080;2022-10-16T09:28:07;5.22;;;1.00;;
22687;SDS011;11511;51.514;7.080;2022-10-16T09:30:34;4.75;;;1.10;;
22687;SDS011;11511;51.514;7.080;2022-10-16T09:33:00;3.70;;;1.40;;
22687;SDS011;11511;51.514;7.080;2022-10-16T09:35:31;1.38;;;0.90;;
22687;SDS011;11511;51.514;7.080;2022-10-16T09:38:00;2.80;;;0.77;;
22687;SDS011;11511;51.514;7.080;2022-10-16T09:40:28;3.95;;;0.93;;
22687;SDS011;11511;51.514;7.080;2022-10-16T09:43:13;2.17;;;0.98;;
22687;SDS011;11511;51.514;7.080;2022-10-16T09:46:04;2.15;;;0.82;;
22687;SDS011;11511;51.514;7.080;2022-10-16T09:48:39;3.60;;;1.00;;
22687;SDS011;11511;51.514;7.080;2022-10-16T09:51:18;3.80;;;1.35;;
22687;SDS011;11511;51.514;7.080;2022-10-16T09:53:54;2.42;;;0.88;;
22687;SDS011;11511;51.514;7.080;2022-10-16T09:56:29;5.45;;;1.00;;
22687;SDS011;11511;51.514;7.080;2022-10-16T09:58:59;2.55;;;1.20;;
22687;SDS011;11511;51.514;7.080;2022-10-16T10:01:31;2.60;;;0.73;;
22687;SDS011;11511;51.514;7.080;2022-10-16T10:04:03;3.63;;;0.80;;
22687;SDS011;11511;51.514;7.080;2022-10-16T10:06:31;1.55;;;0.80;;
22687;SDS011;11511;51.514;7.080;2022-10-16T10:11:58;2.80;;;0.95;;
22687;SDS011;11511;51.514;7.080;2022-10-16T10:19:36;2.55;;;0.98;;
22687;SDS011;11511;51.514;7.080;2022-10-16T10:22:22;2.43;;;0.77;;
22687;SDS011;11511;51.514;7.080;2022-10-16T10:36:14;2.70;;;0.82;;
22687;SDS011;11511;51.514;7.080;2022-10-16T10:42:00;2.00;;;0.80;;
22687;SDS011;11511;51.514;7.080;2022-10-16T10:44:34;3.35;;;0.80;;
22687;SDS011;11511;51.514;7.080;2022-10-16T10:55:24;3.15;;;1.10;;
22687;SDS011;11511;51.514;7.080;2022-10-16T11:01:13;2.72;;;1.08;;
22687;SDS011;11511;51.514;7.080;2022-10-16T11:03:57;1.35;;;0.80;;
22687;SDS011;11511;51.514;7.080;2022-10-16T11:06:46;1.35;;;0.75;;
22687;SDS011;11511;51.514;7.080;2022-10-16T11:09:20;2.22;;;0.77;;
22687;SDS011;11511;51.514;7.080;2022-10-16T11:11:54;2.85;;;0.80;;
22687;SDS011;11511;51.514;7.080;2022-10-16T11:14:31;2.13;;;0.80;;
22687;SDS011;11511;51.514;7.080;2022-10-16T11:17:08;2.35;;;0.90;;
22687;SDS011;11511;51.514;7.080;2022-10-16T11:19:52;2.28;;;0.80;;
22687;SDS011;11511;51.514;7.080;2022-10-16T11:22:32;3.80;;;0.70;;
22687;SDS011;11511;51.514;7.080;2022-10-16T11:30:41;1.02;;;0.50;;
22687;SDS011;11511;51.514;7.080;2022-10-16T11:33:27;1.88;;;1.05;;
22687;SDS011;11511;51.514;7.080;2022-10-16T11:36:15;2.28;;;0.70;;
22687;SDS011;11511;51.514;7.080;2022-10-16T11:41:36;1.65;;;0.70;;
22687;SDS011;11511;51.514;7.080;2022-10-16T11:53:03;2.75;;;0.93;;
22687;SDS011;11511;51.514;7.080;2022-10-16T11:55:40;2.30;;;0.70;;
22687;SDS011;11511;51.514;7.080;2022-10-16T11:58:08;4.25;;;0.80;;
22687;SDS011;11511;51.514;7.080;2022-10-16T12:00:47;1.95;;;0.98;;
22687;SDS011;11511;51.514;7.080;2022-10-16T12:08:43;1.67;;;0.70;;
22687;SDS011;11511;51.514;7.080;2022-10-16T12:11:22;2.15;;;0.90;;
22687;SDS011;11511;51.514;7.080;2022-10-16T12:14:04;1.05;;;0.68;;
22687;SDS011;11511;51.514;7.080;2022-10-16T12:16:33;2.00;;;0.50;;
22687;SDS011;11511;51.514;7.080;2022-10-16T12:19:15;4.38;;;0.70;;
22687;SDS011;11511;51.514;7.080;2022-10-16T12:21:42;0.80;;;0.65;;
22687;SDS011;11511;51.514;7.080;2022-10-16T12:26:54;1.83;;;0.70;;
22687;SDS011;11511;51.514;7.080;2022-10-16T12:29:32;1.35;;;0.77;;
22687;SDS011;11511;51.514;7.080;2022-10-16T12:32:00;3.40;;;0.90;;
22687;SDS011;11511;51.514;7.080;2022-10-16T12:34:28;4.47;;;0.93;;
22687;SDS011;11511;51.514;7.080;2022-10-16T12:37:07;1.77;;;0.75;;
22687;SDS011;11511;51.514;7.080;2022-10-16T12:39:39;2.92;;;1.10;;
22687;SDS011;11511;51.514;7.080;2022-10-16T12:44:51;5.57;;;1.30;;
22687;SDS011;11511;51.514;7.080;2022-10-16T12:47:24;3.40;;;1.10;;
22687;SDS011;11511;51.514;7.080;2022-10-16T12:50:02;1.70;;;0.85;;
22687;SDS011;11511;51.514;7.080;2022-10-16T12:52:34;4.35;;;1.00;;
22687;SDS011;11511;51.514;7.080;2022-10-16T12:55:03;2.45;;;0.82;;
22687;SDS011;11511;51.514;7.080;2022-10-16T13:03:22;2.80;;;1.00;;
22687;SDS011;11511;51.514;7.080;2022-10-16T13:17:08;3.45;;;0.90;;
22687;SDS011;11511;51.514;7.080;2022-10-16T13:19:47;2.55;;;0.63;;
22687;SDS011;11511;51.514;7.080;2022-10-16T13:28:08;3.80;;;0.63;;
22687;SDS011;11511;51.514;7.080;2022-10-16T13:30:39;1.05;;;0.50;;
22687;SDS011;11511;51.514;7.080;2022-10-16T13:35:50;2.17;;;0.60;;
22687;SDS011;11511;51.514;7.080;2022-10-16T13:38:26;1.45;;;0.50;;
22687;SDS011;11511;51.514;7.080;2022-10-16T13:41:03;2.88;;;0.77;;
22687;SDS011;11511;51.514;7.080;2022-10-16T13:43:37;1.98;;;0.70;;
22687;SDS011;11511;51.514;7.080;2022-10-16T13:46:22;3.28;;;0.60;;
22687;SDS011;11511;51.514;7.080;2022-10-16T13:49:04;2.72;;;0.60;;
22687;SDS011;11511;51.514;7.080;2022-10-16T13:51:58;5.70;;;0.80;;
22687;SDS011;11511;51.514;7.080;2022-10-16T13:54:30;1.40;;;0.68;;
22687;SDS011;11511;51.514;7.080;2022-10-16T13:57:06;3.05;;;0.80;;
22687;SDS011;11511;51.514;7.080;2022-10-16T13:59:36;2.10;;;0.65;;
22687;SDS011;11511;51.514;7.080;2022-10-16T14:02:10;2.58;;;0.70;;
22687;SDS011;11511;51.514;7.080;2022-10-16T14:04:49;1.48;;;0.68;;
22687;SDS011;11511;51.514;7.080;2022-10-16T14:07:28;1.27;;;0.50;;
22687;SDS011;11511;51.514;7.080;2022-10-16T14:10:07;3.03;;;0.70;;
22687;SDS011;11511;51.514;7.080;2022-10-16T14:12:56;2.35;;;0.75;;
22687;SDS011;11511;51.514;7.080;2022-10-16T14:15:27;2.97;;;0.70;;
22687;SDS011;11511;51.514;7.080;2022-10-16T14:17:58;2.65;;;0.70;;
22687;SDS011;11511;51.514;7.080;2022-10-16T14:20:29;4.63;;;0.90;;
22687;SDS011;11511;51.514;7.080;2022-10-16T14:23:01;2.92;;;0.75;;
22687;SDS011;11511;51.514;7.080;2022-10-16T14:25:35;3.47;;;0.80;;
22687;SDS011;11511;51.514;7.080;2022-10-16T14:28:14;4.03;;;0.80;;
22687;SDS011;11511;51.514;7.080;2022-10-16T14:33:31;1.10;;;0.70;;
22687;SDS011;11511;51.514;7.080;2022-10-16T14:38:40;4.10;;;1.17;;
22687;SDS011;11511;51.514;7.080;2022-10-16T14:41:12;2.58;;;0.80;;
22687;SDS011;11511;51.514;7.080;2022-10-16T14:43:41;2.35;;;0.85;;
22687;SDS011;11511;51.514;7.080;2022-10-16T14:46:13;1.80;;;0.98;;
22687;SDS011;11511;51.514;7.080;2022-10-16T14:48:45;2.08;;;0.82;;
22687;SDS011;11511;51.514;7.080;2022-10-16T14:51:18;2.75;;;1.00;;
22687;SDS011;11511;51.514;7.080;2022-10-16T14:53:49;4.15;;;1.23;;
22687;SDS011;11511;51.514;7.080;2022-10-16T14:56:23;4.47;;;1.00;;
22687;SDS011;11511;51.514;7.080;2022-10-16T14:58:56;1.73;;;0.90;;
22687;SDS011;11511;51.514;7.080;2022-10-16T15:01:32;4.63;;;1.10;;
22687;SDS011;11511;51.514;7.080;2022-10-16T15:04:03;3.58;;;1.00;;
22687;SDS011;11511;51.514;7.080;2022-10-16T15:06:33;2.25;;;1.00;;
22687;SDS011;11511;51.514;7.080;2022-10-16T15:09:03;2.05;;;0.90;;
22687;SDS011;11511;51.514;7.080;2022-10-16T15:11:32;1.83;;;0.93;;
22687;SDS011;11511;51.514;7.080;2022-10-16T15:14:04;1.77;;;0.80;;
22687;SDS011;11511;51.514;7.080;2022-10-16T15:16:35;3.33;;;1.10;;
22687;SDS011;11511;51.514;7.080;2022-10-16T15:19:07;4.43;;;1.48;;
22687;SDS011;11511;51.514;7.080;2022-10-16T15:21:37;3.58;;;1.40;;
22687;SDS011;11511;51.514;7.080;2022-10-16T15:24:11;4.40;;;1.42;;
22687;SDS011;11511;51.514;7.080;2022-10-16T15:26:48;6.03;;;1.45;;
22687;SDS011;11511;51.514;7.080;2022-10-16T15:29:16;4.90;;;1.40;;
22687;SDS011;11511;51.514;7.080;2022-10-16T15:31:50;4.55;;;1.52;;
22687;SDS011;11511;51.514;7.080;2022-10-16T15:34:19;1.83;;;1.25;;
22687;SDS011;11511;51.514;7.080;2022-10-16T15:36:49;10.75;;;1.70;;
22687;SDS011;11511;51.514;7.080;2022-10-16T15:39:19;3.58;;;1.48;;
22687;SDS011;11511;51.514;7.080;2022-10-16T15:41:48;4.15;;;1.27;;
22687;SDS011;11511;51.514;7.080;2022-10-16T15:44:21;4.03;;;1.60;;
22687;SDS011;11511;51.514;7.080;2022-10-16T15:46:57;3.75;;;1.50;;
22687;SDS011;11511;51.514;7.080;2022-10-16T15:49:29;4.65;;;1.70;;
22687;SDS011;11511;51.514;7.080;2022-10-16T15:52:01;2.70;;;1.50;;
22687;SDS011;11511;51.514;7.080;2022-10-16T15:54:30;3.50;;;1.33;;
22687;SDS011;11511;51.514;7.080;2022-10-16T15:57:01;2.42;;;1.27;;
22687;SDS011;11511;51.514;7.080;2022-10-16T15:59:34;3.78;;;1.23;;
22687;SDS011;11511;51.514;7.080;2022-10-16T16:02:03;3.67;;;1.50;;
22687;SDS011;11511;51.514;7.080;2022-10-16T16:04:42;3.35;;;1.25;;
22687;SDS011;11511;51.514;7.080;2022-10-16T16:07:15;3.20;;;1.40;;
22687;SDS011;11511;51.514;7.080;2022-10-16T16:09:43;4.05;;;1.52;;
22687;SDS011;11511;51.514;7.080;2022-10-16T16:12:12;4.38;;;2.20;;
22687;SDS011;11511;51.514;7.080;2022-10-16T16:14:44;3.33;;;2.03;;
22687;SDS011;11511;51.514;7.080;2022-10-16T16:17:19;4.18;;;2.40;;
22687;SDS011;11511;51.514;7.080;2022-10-16T16:19:51;5.63;;;3.20;;
22687;SDS011;11511;51.514;7.080;2022-10-16T16:22:21;6.10;;;4.60;;
22687;SDS011;11511;51.514;7.080;2022-10-16T16:24:49;7.95;;;6.15;;
22687;SDS011;11511;51.514;7.080;2022-10-16T16:27:17;6.68;;;4.00;;
22687;SDS011;11511;51.514;7.080;2022-10-16T16:29:48;5.00;;;3.35;;
22687;SDS011;11511;51.514;7.080;2022-10-16T16:32:21;5.75;;;2.83;;
22687;SDS011;11511;51.514;7.080;2022-10-16T16:34:49;6.30;;;2.85;;
22687;SDS011;11511;51.514;7.080;2022-10-16T16:37:22;6.55;;;2.67;;
22687;SDS011;11511;51.514;7.080;2022-10-16T16:39:51;7.78;;;3.05;;
22687;SDS011;11511;51.514;7.080;2022-10-16T16:42:22;5.25;;;2.58;;
22687;SDS011;11511;51.514;7.080;2022-10-16T16:44:52;9.18;;;3.00;;
22687;SDS011;11511;51.514;7.080;2022-10-16T16:47:25;7.90;;;4.32;;
22687;SDS011;11511;51.514;7.080;2022-10-16T16:49:54;7.63;;;4.03;;
22687;SDS011;11511;51.514;7.080;2022-10-16T16:52:23;6.07;;;3.40;;
22687;SDS011;11511;51.514;7.080;2022-10-16T16:54:53;11.65;;;6.00;;
22687;SDS011;11511;51.514;7.080;2022-10-16T16:57:22;8.27;;;4.75;;
22687;SDS011;11511;51.514;7.080;2022-10-16T16:59:53;11.18;;;5.47;;
22687;SDS011;11511;51.514;7.080;2022-10-16T17:02:25;8.35;;;4.30;;
22687;SDS011;11511;51.514;7.080;2022-10-16T17:04:59;7.82;;;4.15;;
22687;SDS011;11511;51.514;7.080;2022-10-16T17:07:30;7.70;;;3.92;;
22687;SDS011;11511;51.514;7.080;2022-10-16T17:10:02;7.55;;;3.80;;
22687;SDS011;11511;51.514;7.080;2022-10-16T17:12:34;6.43;;;3.83;;